Gurley, Nebraska
Current Conditions -  °F | °C
As of 2:53 AM on Sunday 23 Nov 2014 (Local Time) from KSNY Reporting Station
Overcast Overcast  
Wind Chill: 27°   Ceiling: 9500
Heat Index: 37°   Visibility: 10mi
Dew Point: 25°   Wind: 18mph
Humidity: 62%   Direction: 340°NNW
Pressure: 29.64"   Gusts: NA
Location:  41.32°N, 102.97°W
Report Text: KSNY 230953Z AUTO 34016KT 10SM OVC095 03/M04 A2964 RMK AO2 SLP023 T00281039
Loading
Personal Weather Stations






























Interactive Weather Map New forecast layout! Learn more

10-Day Weather Forecast

Advertisements
Track Severe Weather on mobile